Terminal Aerodrome Forecast
Issued by NWS

Home | Current Version | Previous Version | Text Only | Print | Product List | Glossary Off
Versions: 1 2 3 4 5 6 7 8 9 10 11 12 13 14 15

000
FTUS43 KMPX 280520
TAFRNH
TAF
KRNH 280520Z 2806/2906 02004KT P6SM OVC007
      TEMPO 2806/2808 SCT008 OVC035
     FM281400 05007KT P6SM VCSH OVC015
     FM281800 05007KT P6SM OVC025
     FM282100 04004KT P6SM OVC040=

USA.gov is the U.S. government's official web portal to all federal, state and local government web resources and services.